Time;durP1;ratioP1;P1;durP2;ratioP2;P2;SDS_P1;SDS_P2;PMS_P1;PMS_P2;Temp;Humidity;BMP_temperature;BMP_pressure;BME280_temperature;BME280_humidity;BME280_pressure;Samples;Min_cycle;Max_cycle;Signal;HPM_P1;HPM_P2
2022/11/06 00:02:13;;;;;;;6.33;5.43;;;4.80;99.90;;;;;;5043698;28;20223;-48
2022/11/06 00:04:40;;;;;;;6.77;4.93;;;4.70;99.90;;;;;;5051162;28;20194;-48
2022/11/06 00:07:07;;;;;;;6.10;5.60;;;4.70;99.90;;;;;;5052890;28;20549;-48
2022/11/06 00:09:34;;;;;;;4.90;4.43;;;4.70;99.90;;;;;;5045787;28;20253;-48
2022/11/06 00:12:02;;;;;;;6.77;5.63;;;4.50;99.90;;;;;;5051437;28;20228;-48
2022/11/06 00:14:30;;;;;;;4.97;4.43;;;4.50;99.90;;;;;;5046346;28;20203;-48
2022/11/06 00:16:57;;;;;;;7.27;4.93;;;4.50;99.90;;;;;;5044425;28;20291;-46
2022/11/06 00:19:24;;;;;;;4.93;4.53;;;4.50;99.90;;;;;;5047651;28;20223;-45
2022/11/06 00:21:51;;;;;;;5.03;4.73;;;4.40;99.90;;;;;;5036867;28;20203;-46
2022/11/06 00:24:19;;;;;;;6.23;5.30;;;4.40;99.90;;;;;;5050461;28;20224;-46
2022/11/06 00:26:46;;;;;;;6.50;5.10;;;4.40;99.90;;;;;;5050269;28;20218;-46
2022/11/06 00:29:15;;;;;;;5.73;5.23;;;4.40;99.90;;;;;;5050511;28;20701;-46
2022/11/06 00:31:44;;;;;;;5.47;4.37;;;4.40;99.90;;;;;;5050562;28;20200;-46
2022/11/06 00:34:11;;;;;;;5.43;5.03;;;4.40;99.90;;;;;;5048154;28;20219;-46
2022/11/06 00:36:38;;;;;;;5.47;4.97;;;4.40;99.90;;;;;;5033137;28;20424;-46
2022/11/06 00:39:05;;;;;;;5.30;4.80;;;4.40;99.90;;;;;;5034244;28;20557;-46
2022/11/06 00:41:32;;;;;;;5.87;5.37;;;4.40;99.90;;;;;;5044440;28;20205;-46
2022/11/06 00:44:02;;;;;;;5.17;4.77;;;4.40;99.90;;;;;;5046235;28;20690;-46
2022/11/06 00:46:29;;;;;;;5.40;4.97;;;4.40;99.90;;;;;;5043792;28;20658;-46
2022/11/06 00:48:58;;;;;;;4.97;4.57;;;4.40;99.90;;;;;;5042086;28;20253;-46
2022/11/06 00:51:28;;;;;;;4.87;4.53;;;4.40;99.90;;;;;;5033167;28;20215;-46
2022/11/06 00:53:56;;;;;;;4.70;4.30;;;4.40;99.90;;;;;;5033909;28;20270;-46
2022/11/06 00:56:23;;;;;;;4.40;4.07;;;4.50;99.90;;;;;;5042768;28;20659;-46
2022/11/06 00:58:50;;;;;;;5.87;5.27;;;4.40;99.90;;;;;;5043134;28;20262;-47
2022/11/06 01:01:20;;;;;;;4.97;4.57;;;4.40;99.90;;;;;;5044201;28;20295;-47
2022/11/06 01:03:51;;;;;;;5.00;4.60;;;4.40;99.90;;;;;;5047683;28;20592;-46
2022/11/06 01:06:21;;;;;;;5.33;4.77;;;4.30;99.90;;;;;;5032784;28;20212;-47
2022/11/06 01:08:48;;;;;;;4.93;4.47;;;4.30;99.90;;;;;;5039951;28;20299;-46
2022/11/06 01:11:18;;;;;;;5.57;5.00;;;4.20;99.90;;;;;;5033703;28;20211;-46
2022/11/06 01:13:46;;;;;;;5.10;4.70;;;4.20;99.90;;;;;;5049743;28;20224;-46
2022/11/06 01:16:15;;;;;;;5.37;4.97;;;4.20;99.90;;;;;;5049663;28;21474;-46
2022/11/06 01:18:43;;;;;;;6.33;5.83;;;4.30;99.90;;;;;;5035146;28;20262;-46
2022/11/06 01:21:13;;;;;;;5.80;5.30;;;4.40;99.90;;;;;;5045316;28;20204;-46
2022/11/06 01:23:42;;;;;;;5.43;4.93;;;4.40;99.90;;;;;;5043479;28;20238;-46
2022/11/06 01:26:11;;;;;;;5.57;5.07;;;4.50;99.90;;;;;;5051209;28;20208;-46
2022/11/06 01:28:38;;;;;;;5.50;4.87;;;4.60;99.90;;;;;;5043463;28;20204;-46
2022/11/06 01:31:07;;;;;;;4.60;4.20;;;4.60;99.90;;;;;;5050186;28;20621;-46
2022/11/06 01:33:35;;;;;;;5.53;4.93;;;4.60;99.90;;;;;;5043470;28;20686;-46
2022/11/06 01:36:02;;;;;;;4.50;4.20;;;4.60;99.90;;;;;;5039341;28;20216;-46
2022/11/06 01:38:29;;;;;;;7.73;4.20;;;4.50;99.90;;;;;;5037262;28;20266;-46
2022/11/06 01:40:57;;;;;;;4.40;4.07;;;4.50;99.90;;;;;;5036492;28;20200;-46
2022/11/06 01:43:26;;;;;;;4.87;4.47;;;4.40;99.90;;;;;;5046158;28;20281;-46
2022/11/06 01:45:54;;;;;;;5.13;4.73;;;4.40;99.90;;;;;;5048348;28;20670;-46
2022/11/06 01:48:25;;;;;;;4.23;3.93;;;4.30;99.90;;;;;;5039486;28;20259;-46
2022/11/06 01:50:57;;;;;;;5.00;4.27;;;4.30;99.90;;;;;;5038125;28;20204;-46
2022/11/06 01:53:25;;;;;;;5.50;4.53;;;4.30;99.90;;;;;;5044534;28;20228;-46
2022/11/06 01:55:56;;;;;;;6.50;5.17;;;4.30;99.90;;;;;;5038360;28;20227;-46
2022/11/06 01:58:27;;;;;;;4.00;3.70;;;4.30;99.90;;;;;;5050543;28;20195;-46
2022/11/06 02:00:55;;;;;;;4.53;4.23;;;4.40;99.90;;;;;;5043058;28;20203;-46
2022/11/06 02:03:22;;;;;;;4.17;3.87;;;4.50;99.90;;;;;;5050121;28;20224;-46
2022/11/06 02:05:49;;;;;;;5.17;4.13;;;4.40;99.90;;;;;;5040242;28;20213;-46
2022/11/06 02:08:19;;;;;;;4.37;3.97;;;4.40;99.90;;;;;;5040516;28;20213;-46
2022/11/06 02:10:47;;;;;;;4.67;4.23;;;4.40;99.90;;;;;;5043499;28;20199;-46
2022/11/06 02:13:27;;;;;;;4.50;4.13;;;4.30;99.90;;;;;;5047293;28;20225;-46
2022/11/06 02:16:03;;;;;;;4.87;4.47;;;4.50;99.90;;;;;;5045333;28;20619;-46
2022/11/06 02:18:53;;;;;;;4.90;4.40;;;4.40;99.90;;;;;;5042347;28;20291;-46
2022/11/06 02:21:40;;;;;;;5.50;3.97;;;4.30;99.90;;;;;;5045400;28;20197;-46
2022/11/06 02:24:44;;;;;;;3.47;3.27;;;4.20;99.90;;;;;;5028646;28;20230;-47
2022/11/06 02:27:15;;;;;;;4.23;3.87;;;4.10;99.90;;;;;;5041364;28;20574;-46
2022/11/06 02:29:54;;;;;;;4.80;4.37;;;4.00;99.90;;;;;;5048689;28;20207;-46
2022/11/06 02:32:27;;;;;;;3.73;3.53;;;3.90;99.90;;;;;;5036956;28;20577;-46
2022/11/06 02:34:56;;;;;;;5.27;4.77;;;3.80;99.90;;;;;;5039672;28;20690;-46
2022/11/06 02:37:29;;;;;;;5.70;5.20;;;3.80;99.90;;;;;;5030793;28;20626;-46
2022/11/06 02:40:00;;;;;;;4.50;4.10;;;3.80;99.90;;;;;;5042283;28;20678;-46
2022/11/06 02:42:30;;;;;;;6.20;4.67;;;3.80;99.90;;;;;;5047266;28;20224;-46
2022/11/06 02:44:59;;;;;;;4.80;4.40;;;3.70;99.90;;;;;;5045627;28;20228;-46
2022/11/06 02:47:30;;;;;;;4.73;4.27;;;3.70;99.90;;;;;;5038946;28;20200;-46
2022/11/06 02:50:02;;;;;;;4.87;4.57;;;3.70;99.90;;;;;;5030689;28;20636;-46
2022/11/06 02:52:32;;;;;;;5.70;4.23;;;3.60;99.90;;;;;;5041437;28;20224;-46
2022/11/06 02:55:04;;;;;;;3.80;3.57;;;3.50;99.90;;;;;;5033580;28;20617;-46
2022/11/06 02:57:37;;;;;;;4.53;4.17;;;3.60;99.90;;;;;;5038545;28;20267;-46
2022/11/06 03:00:09;;;;;;;4.13;3.90;;;3.50;99.90;;;;;;5045753;28;20240;-47
2022/11/06 03:02:40;;;;;;;4.40;4.10;;;3.50;99.90;;;;;;5057054;28;20250;-46
2022/11/06 03:05:12;;;;;;;4.23;3.93;;;3.40;99.90;;;;;;5047147;28;20273;-46
2022/11/06 03:07:44;;;;;;;6.20;4.27;;;3.40;99.90;;;;;;5040303;28;20200;-46
2022/11/06 03:10:12;;;;;;;4.93;4.57;;;3.30;99.90;;;;;;5041849;28;20291;-46
2022/11/06 03:12:50;;;;;;;7.40;5.30;;;3.30;99.90;;;;;;5052298;28;20755;-46
2022/11/06 03:15:25;;;;;;;4.43;4.07;;;3.30;99.90;;;;;;5049943;28;20200;-46
2022/11/06 03:17:58;;;;;;;5.47;4.77;;;3.30;99.90;;;;;;5047430;28;20665;-47
2022/11/06 03:20:35;;;;;;;3.93;3.63;;;3.20;99.90;;;;;;5056897;28;20209;-46
2022/11/06 03:23:09;;;;;;;4.57;4.17;;;3.30;99.90;;;;;;5056724;28;20321;-46
2022/11/06 03:25:43;;;;;;;4.03;3.83;;;3.30;99.90;;;;;;5053149;28;20582;-46
2022/11/06 03:28:17;;;;;;;4.17;3.53;;;3.20;99.90;;;;;;5040583;28;20215;-46
2022/11/06 03:30:50;;;;;;;5.10;4.40;;;3.20;99.90;;;;;;5050172;28;20207;-46
2022/11/06 03:33:23;;;;;;;3.97;3.53;;;3.20;99.90;;;;;;5049971;28;20287;-48
2022/11/06 03:35:55;;;;;;;4.50;3.77;;;3.20;99.90;;;;;;5046244;28;20210;-48
2022/11/06 03:38:27;;;;;;;3.13;2.93;;;3.20;99.90;;;;;;5042665;28;20226;-48
2022/11/06 03:40:59;;;;;;;3.93;3.63;;;3.20;99.90;;;;;;5053623;28;20215;-48
2022/11/06 03:43:34;;;;;;;3.70;3.50;;;3.20;99.90;;;;;;5041169;28;20216;-48
2022/11/06 03:46:04;;;;;;;3.87;3.63;;;3.10;99.90;;;;;;5048748;28;20257;-49
2022/11/06 03:48:34;;;;;;;3.93;3.53;;;3.10;99.90;;;;;;5040602;28;20212;-48
2022/11/06 03:51:05;;;;;;;4.23;3.93;;;3.10;99.90;;;;;;5043991;28;20631;-46
2022/11/06 03:53:40;;;;;;;4.30;4.00;;;3.10;99.90;;;;;;5047055;28;20310;-48
2022/11/06 03:56:13;;;;;;;4.43;4.10;;;3.10;99.90;;;;;;5044758;28;20206;-47
2022/11/06 03:58:46;;;;;;;5.17;4.67;;;3.10;99.90;;;;;;5036490;28;20205;-47
2022/11/06 04:01:16;;;;;;;4.67;4.33;;;3.10;99.90;;;;;;5041149;28;20199;-46
2022/11/06 04:03:49;;;;;;;4.23;3.93;;;3.10;99.90;;;;;;5051416;28;20258;-46
2022/11/06 04:06:21;;;;;;;4.27;3.63;;;3.10;99.90;;;;;;5044768;28;20202;-46
2022/11/06 04:14:28;;;;;;;3.63;3.33;;;3.10;99.90;;;;;;5044605;28;20564;-46
2022/11/06 04:17:01;;;;;;;3.60;3.30;;;3.20;99.90;;;;;;5040111;28;20202;-47
2022/11/06 04:19:28;;;;;;;4.93;3.17;;;3.10;99.90;;;;;;5046318;28;20657;-46
2022/11/06 04:22:18;;;;;;;3.87;3.67;;;3.10;99.90;;;;;;5044775;28;20200;-46
2022/11/06 04:27:53;;;;;;;5.20;3.90;;;3.20;99.90;;;;;;5053156;28;20320;-49
2022/11/06 04:30:22;;;;;;;4.90;4.50;;;3.10;99.90;;;;;;5043822;28;20214;-49
2022/11/06 04:33:04;;;;;;;3.90;3.67;;;3.20;99.90;;;;;;5050283;28;20258;-50
2022/11/06 04:35:38;;;;;;;4.00;3.60;;;3.10;99.90;;;;;;5052110;28;20667;-49
2022/11/06 04:38:11;;;;;;;4.40;3.93;;;3.00;99.90;;;;;;5051989;28;20214;-49
2022/11/06 04:40:49;;;;;;;4.10;3.80;;;3.00;99.90;;;;;;5051444;28;20724;-49
2022/11/06 04:43:25;;;;;;;4.20;3.90;;;2.90;99.90;;;;;;5045183;28;20220;-49
2022/11/06 04:45:57;;;;;;;3.97;3.33;;;2.90;99.90;;;;;;5051555;28;20227;-50
2022/11/06 04:48:25;;;;;;;5.00;4.63;;;2.80;99.90;;;;;;5052704;28;20665;-49
2022/11/06 04:50:56;;;;;;;3.90;3.60;;;2.80;99.90;;;;;;5046310;28;20231;-50
2022/11/06 04:53:25;;;;;;;4.00;3.67;;;2.80;99.90;;;;;;5046290;28;20762;-49
2022/11/06 04:55:56;;;;;;;3.70;3.43;;;2.70;99.90;;;;;;5040692;28;20251;-49
2022/11/06 04:58:23;;;;;;;4.20;3.80;;;2.70;99.90;;;;;;5032824;28;20216;-49
2022/11/06 05:00:52;;;;;;;4.40;4.10;;;2.60;99.90;;;;;;5037497;28;20590;-49
2022/11/06 05:03:19;;;;;;;3.27;3.07;;;2.60;99.90;;;;;;5044103;28;20725;-49
2022/11/06 05:05:46;;;;;;;3.93;3.67;;;2.60;99.90;;;;;;5049942;28;20224;-49
2022/11/06 05:08:15;;;;;;;3.63;3.33;;;2.60;99.90;;;;;;5048892;28;20226;-48
2022/11/06 05:10:43;;;;;;;3.63;3.43;;;2.60;99.90;;;;;;5047671;28;20212;-49
2022/11/06 05:13:11;;;;;;;10.03;4.20;;;2.50;99.90;;;;;;5041473;28;20243;-49
2022/11/06 05:15:38;;;;;;;3.87;3.60;;;2.50;99.90;;;;;;5046939;28;20656;-49
2022/11/06 05:18:07;;;;;;;3.40;3.10;;;2.50;99.90;;;;;;5051849;28;20209;-49
2022/11/06 05:20:34;;;;;;;3.33;3.13;;;2.40;99.90;;;;;;5050131;28;20256;-49
2022/11/06 05:23:00;;;;;;;2.90;2.80;;;2.40;99.90;;;;;;5046127;28;20234;-50
2022/11/06 05:25:29;;;;;;;3.60;3.40;;;2.40;99.90;;;;;;5036666;28;20234;-49
2022/11/06 05:27:57;;;;;;;3.87;3.57;;;2.30;99.90;;;;;;5036355;28;20204;-49
2022/11/06 05:30:24;;;;;;;3.87;3.67;;;2.30;99.90;;;;;;5039333;28;20200;-48
2022/11/06 05:32:52;;;;;;;4.47;4.17;;;2.30;99.90;;;;;;5050577;28;20223;-49
2022/11/06 05:35:21;;;;;;;3.83;3.73;;;2.30;99.90;;;;;;5049554;28;20208;-49
2022/11/06 05:37:49;;;;;;;3.70;3.40;;;2.30;99.90;;;;;;5042117;28;20257;-48
2022/11/06 05:40:17;;;;;;;3.90;3.60;;;2.30;99.90;;;;;;5043246;28;20228;-49
2022/11/06 05:42:44;;;;;;;4.33;3.93;;;2.40;99.90;;;;;;5040551;28;20274;-49
2022/11/06 05:45:11;;;;;;;3.73;3.47;;;2.40;99.90;;;;;;5040305;28;20278;-51
2022/11/06 05:47:40;;;;;;;5.13;4.00;;;2.40;99.90;;;;;;5049027;28;20278;-49
2022/11/06 05:50:08;;;;;;;4.10;3.87;;;2.40;99.90;;;;;;5051177;28;20198;-49
2022/11/06 05:52:38;;;;;;;4.73;4.33;;;2.40;99.90;;;;;;5047473;28;20215;-49
2022/11/06 05:55:06;;;;;;;4.70;4.40;;;2.40;99.90;;;;;;5044454;28;20262;-49
2022/11/06 05:57:33;;;;;;;5.23;4.73;;;2.40;99.90;;;;;;5047048;28;20574;-50
2022/11/06 06:00:00;;;;;;;5.10;4.60;;;2.40;99.90;;;;;;5050762;28;20298;-48
2022/11/06 06:02:28;;;;;;;9.47;8.67;;;2.40;99.90;;;;;;5045696;28;20306;-50
2022/11/06 06:04:55;;;;;;;9.27;8.13;;;2.50;99.90;;;;;;5036056;28;20269;-49
2022/11/06 06:07:22;;;;;;;10.20;8.57;;;2.50;99.90;;;;;;5031376;28;20201;-49
2022/11/06 06:09:50;;;;;;;7.00;6.10;;;2.60;99.90;;;;;;5043663;28;20223;-48
2022/11/06 06:12:18;;;;;;;8.07;7.27;;;2.60;99.90;;;;;;5046053;28;20219;-48
2022/11/06 06:14:49;;;;;;;6.33;5.77;;;2.60;99.90;;;;;;5043264;28;20900;-48
2022/11/06 06:17:16;;;;;;;6.20;5.60;;;2.60;99.90;;;;;;5047309;28;20204;-48
2022/11/06 06:19:43;;;;;;;4.53;4.23;;;2.50;99.90;;;;;;5031527;28;20643;-48
2022/11/06 06:22:11;;;;;;;7.07;6.47;;;2.50;99.90;;;;;;5033558;28;20210;-48
2022/11/06 06:24:38;;;;;;;8.33;7.20;;;2.60;99.90;;;;;;5048919;28;20670;-50
2022/11/06 06:27:07;;;;;;;13.43;10.37;;;2.60;99.90;;;;;;5042683;28;20208;-49
2022/11/06 06:29:35;;;;;;;9.33;8.27;;;2.60;99.90;;;;;;5047652;28;20206;-49
2022/11/06 06:32:03;;;;;;;7.57;6.77;;;2.60;99.90;;;;;;5036836;28;20209;-48
2022/11/06 06:34:30;;;;;;;7.47;6.67;;;2.60;99.90;;;;;;5040287;28;20206;-47
2022/11/06 06:37:00;;;;;;;6.93;6.23;;;2.60;99.90;;;;;;5043757;28;20210;-47
2022/11/06 06:39:28;;;;;;;5.77;5.13;;;2.60;99.90;;;;;;5047450;28;20204;-47
2022/11/06 06:41:55;;;;;;;5.47;4.97;;;2.70;99.90;;;;;;5039413;28;20218;-47
2022/11/06 06:44:24;;;;;;;5.00;4.63;;;2.70;99.90;;;;;;5040579;28;20304;-48
2022/11/06 06:46:51;;;;;;;4.90;4.50;;;2.60;99.90;;;;;;5037977;28;20232;-49
2022/11/06 06:49:18;;;;;;;5.17;4.77;;;2.70;99.90;;;;;;5039759;28;20208;-47
2022/11/06 06:51:47;;;;;;;5.17;4.77;;;2.80;99.90;;;;;;5040589;28;20215;-48
2022/11/06 06:54:17;;;;;;;5.23;4.83;;;2.90;99.90;;;;;;5047240;28;20273;-46
2022/11/06 06:56:44;;;;;;;4.03;3.83;;;3.00;99.90;;;;;;5043199;28;20201;-49
2022/11/06 06:59:11;;;;;;;5.27;4.70;;;3.20;99.90;;;;;;5047739;28;20309;-48
2022/11/06 07:01:40;;;;;;;4.60;4.20;;;3.30;99.90;;;;;;5037933;28;20203;-47
2022/11/06 07:04:08;;;;;;;4.43;4.10;;;3.30;99.90;;;;;;5045794;28;20227;-48
2022/11/06 07:06:35;;;;;;;4.47;4.17;;;3.30;99.90;;;;;;5044184;28;20229;-48
2022/11/06 07:09:02;;;;;;;4.57;4.23;;;3.40;99.90;;;;;;5049283;28;20269;-48
2022/11/06 07:11:29;;;;;;;4.33;4.03;;;3.40;99.90;;;;;;5041970;28;20205;-47
2022/11/06 07:13:56;;;;;;;4.97;4.50;;;3.40;99.90;;;;;;5039629;28;20235;-45
2022/11/06 07:16:24;;;;;;;6.63;5.70;;;3.40;99.90;;;;;;5032861;28;20203;-52
2022/11/06 07:18:52;;;;;;;5.90;5.50;;;3.40;99.90;;;;;;5041899;28;20292;-47
2022/11/06 07:21:20;;;;;;;5.73;5.33;;;3.50;99.90;;;;;;5043601;28;20207;-49
2022/11/06 07:23:47;;;;;;;4.37;4.07;;;3.50;99.90;;;;;;5035166;28;20224;-48
2022/11/06 07:26:15;;;;;;;6.07;5.57;;;3.60;99.90;;;;;;5042156;28;20226;-49
2022/11/06 07:28:42;;;;;;;5.03;4.63;;;3.70;99.90;;;;;;5036211;28;20464;-51
2022/11/06 07:31:11;;;;;;;3.67;3.47;;;3.70;99.90;;;;;;5042664;28;20203;-48
2022/11/06 07:33:39;;;;;;;3.17;3.00;;;3.90;99.90;;;;;;5047935;28;20216;-47
2022/11/06 07:36:09;;;;;;;2.60;2.47;;;4.00;99.90;;;;;;5037498;28;20581;-47
2022/11/06 07:38:38;;;;;;;4.43;4.03;;;4.10;99.90;;;;;;5042349;28;20298;-49
2022/11/06 07:41:06;;;;;;;2.40;2.30;;;4.20;99.90;;;;;;5041913;28;20208;-47
2022/11/06 07:43:33;;;;;;;2.73;2.53;;;4.20;99.90;;;;;;5039020;28;20224;-46
2022/11/06 07:46:02;;;;;;;2.93;1.80;;;4.40;99.90;;;;;;5038135;28;20220;-47
2022/11/06 07:48:30;;;;;;;2.07;1.97;;;4.60;99.90;;;;;;5038902;28;20676;-48
2022/11/06 07:50:57;;;;;;;1.60;1.50;;;4.70;99.90;;;;;;5044666;28;20272;-47
2022/11/06 07:53:26;;;;;;;2.47;2.30;;;4.80;99.90;;;;;;5047872;28;20311;-47
2022/11/06 07:55:55;;;;;;;1.90;1.80;;;4.80;99.90;;;;;;5047714;28;20204;-46
2022/11/06 07:58:23;;;;;;;1.63;1.63;;;4.80;99.90;;;;;;5042498;28;20212;-49
2022/11/06 08:00:51;;;;;;;3.87;2.53;;;4.90;99.90;;;;;;5042930;28;20282;-47
2022/11/06 08:03:19;;;;;;;4.40;3.10;;;5.00;99.90;;;;;;5043451;28;20642;-46
2022/11/06 08:05:47;;;;;;;2.77;2.60;;;5.00;99.90;;;;;;5045001;28;20216;-47
2022/11/06 08:08:14;;;;;;;2.37;2.23;;;5.20;99.90;;;;;;5043822;28;20200;-50
2022/11/06 08:10:43;;;;;;;2.47;2.27;;;5.40;99.90;;;;;;5051030;28;20272;-47
2022/11/06 08:13:10;;;;;;;2.70;2.33;;;5.40;99.90;;;;;;5048011;28;20694;-46
2022/11/06 08:15:38;;;;;;;3.13;2.93;;;5.60;99.90;;;;;;5048184;28;20296;-48
2022/11/06 08:18:06;;;;;;;2.90;2.70;;;5.60;99.90;;;;;;5045560;28;20209;-49
2022/11/06 08:20:34;;;;;;;2.50;2.40;;;5.70;99.90;;;;;;5046816;28;20226;-47
2022/11/06 08:23:02;;;;;;;1.90;1.80;;;5.70;99.90;;;;;;5045279;28;20235;-47
2022/11/06 08:25:30;;;;;;;1.93;1.47;;;5.90;99.90;;;;;;5049477;28;20223;-49
2022/11/06 08:28:01;;;;;;;2.47;1.60;;;5.90;99.90;;;;;;5051817;28;20199;-48
2022/11/06 08:30:29;;;;;;;1.60;1.53;;;6.00;99.90;;;;;;5050568;28;20199;-47
2022/11/06 08:33:01;;;;;;;1.13;1.13;;;6.20;99.90;;;;;;5047001;28;20228;-47
2022/11/06 08:35:28;;;;;;;1.70;1.10;;;6.40;99.90;;;;;;5051904;28;20282;-47
2022/11/06 08:37:56;;;;;;;0.77;0.77;;;6.60;99.90;;;;;;5051858;28;20220;-47
2022/11/06 08:40:23;;;;;;;1.53;0.80;;;6.70;99.90;;;;;;5045030;28;20230;-49
2022/11/06 08:42:50;;;;;;;1.37;0.80;;;6.90;99.90;;;;;;5043933;28;20681;-47
2022/11/06 08:45:19;;;;;;;2.93;1.00;;;7.10;99.90;;;;;;5050874;28;20301;-48
2022/11/06 08:47:46;;;;;;;1.20;1.20;;;7.30;99.90;;;;;;5043643;28;20381;-48
2022/11/06 08:50:13;;;;;;;1.03;1.03;;;7.90;99.90;;;;;;5041202;28;20201;-47
2022/11/06 08:52:41;;;;;;;1.47;1.37;;;8.60;99.90;;;;;;5040535;28;20323;-48
2022/11/06 08:55:09;;;;;;;0.90;0.90;;;9.20;99.90;;;;;;5048294;28;20192;-48
2022/11/06 08:57:36;;;;;;;1.70;1.10;;;9.60;99.90;;;;;;5051953;28;20281;-48
2022/11/06 09:00:05;;;;;;;1.53;1.47;;;10.00;99.90;;;;;;5044102;28;20670;-50
2022/11/06 09:02:33;;;;;;;1.60;1.23;;;10.40;99.90;;;;;;5046512;28;20225;-48
2022/11/06 09:05:02;;;;;;;1.30;1.20;;;10.40;99.90;;;;;;5036908;28;20267;-47
2022/11/06 09:07:30;;;;;;;0.90;0.90;;;10.70;99.90;;;;;;5041412;28;20228;-49
2022/11/06 09:09:57;;;;;;;0.97;0.97;;;11.10;99.90;;;;;;5043515;28;20261;-48
2022/11/06 09:12:24;;;;;;;0.80;0.80;;;11.20;99.90;;;;;;5047036;28;20278;-50
2022/11/06 09:14:51;;;;;;;0.77;0.77;;;11.30;99.90;;;;;;5045689;28;20204;-49
2022/11/06 09:17:22;;;;;;;1.83;0.63;;;11.60;99.90;;;;;;5048960;28;20192;-50
2022/11/06 09:19:50;;;;;;;0.60;0.60;;;12.00;99.90;;;;;;5043453;28;20644;-48
2022/11/06 09:22:17;;;;;;;0.80;0.80;;;12.30;99.90;;;;;;5037802;28;20291;-49
2022/11/06 09:24:45;;;;;;;1.00;0.63;;;12.60;99.90;;;;;;5033224;28;20222;-50
2022/11/06 09:27:12;;;;;;;1.40;1.30;;;12.70;99.90;;;;;;5031421;28;20938;-50
2022/11/06 09:29:42;;;;;;;1.00;1.00;;;12.80;99.90;;;;;;5045673;28;20274;-49
2022/11/06 09:32:09;;;;;;;2.93;1.00;;;12.90;99.90;;;;;;5039435;28;20650;-48
2022/11/06 09:34:37;;;;;;;0.70;0.70;;;12.80;99.90;;;;;;5048436;28;20288;-50
2022/11/06 09:37:05;;;;;;;0.90;0.90;;;12.90;99.90;;;;;;5045624;28;20569;-49
2022/11/06 09:39:32;;;;;;;0.93;0.80;;;12.90;99.90;;;;;;5048812;28;20205;-50
2022/11/06 09:42:02;;;;;;;0.63;0.63;;;12.80;99.90;;;;;;5034833;28;20246;-50
2022/11/06 09:44:42;;;;;;;0.80;0.80;;;12.60;99.90;;;;;;5051254;28;20258;-50
2022/11/06 09:47:16;;;;;;;0.80;0.80;;;12.60;99.90;;;;;;5048369;28;20227;-50
2022/11/06 09:49:48;;;;;;;0.63;0.63;;;12.70;99.90;;;;;;5042991;28;20228;-50
2022/11/06 09:52:22;;;;;;;1.23;1.20;;;13.00;99.90;;;;;;5050771;28;20224;-50
2022/11/06 09:54:54;;;;;;;0.97;0.97;;;13.20;99.90;;;;;;5045813;28;20673;-50
2022/11/06 09:57:28;;;;;;;0.63;0.63;;;13.40;99.90;;;;;;5045955;28;20215;-51
2022/11/06 09:59:56;;;;;;;1.07;0.97;;;13.50;99.90;;;;;;5049316;28;20545;-51
2022/11/06 10:02:29;;;;;;;1.10;0.70;;;13.10;99.90;;;;;;5044650;28;20220;-52
2022/11/06 10:05:00;;;;;;;1.00;0.77;;;13.70;99.90;;;;;;5041939;28;20201;-51
2022/11/06 10:07:31;;;;;;;1.13;1.13;;;13.60;99.90;;;;;;5045555;28;20274;-50
2022/11/06 10:09:59;;;;;;;0.90;0.83;;;13.60;99.90;;;;;;5041131;28;20202;-50
2022/11/06 10:12:40;;;;;;;0.90;0.80;;;13.60;99.90;;;;;;5051325;28;20773;-51
2022/11/06 10:15:20;;;;;;;0.50;0.50;;;13.70;99.90;;;;;;5047168;28;20677;-52
2022/11/06 10:17:55;;;;;;;0.93;0.60;;;13.60;99.90;;;;;;5040095;28;20193;-48
2022/11/06 10:20:30;;;;;;;0.77;0.77;;;13.50;99.90;;;;;;5044045;28;20695;-49
2022/11/06 10:23:04;;;;;;;0.47;0.47;;;13.40;99.90;;;;;;5044612;28;20637;-51
2022/11/06 10:25:43;;;;;;;0.50;0.50;;;13.40;99.90;;;;;;5051285;28;20202;-50
2022/11/06 10:28:47;;;;;;;0.47;0.47;;;12.90;99.90;;;;;;5051494;28;20200;-51
2022/11/06 10:31:25;;;;;;;0.57;0.57;;;12.40;99.90;;;;;;5051670;28;20695;-51
2022/11/06 10:33:57;;;;;;;0.80;0.80;;;12.30;99.90;;;;;;5047676;28;20225;-52
2022/11/06 10:36:28;;;;;;;0.60;0.60;;;12.30;99.90;;;;;;5041755;28;20706;-51
2022/11/06 10:38:59;;;;;;;0.83;0.83;;;12.10;99.90;;;;;;5040770;28;20202;-51
2022/11/06 10:41:32;;;;;;;1.23;0.80;;;12.00;99.90;;;;;;5044234;28;20259;-52
2022/11/06 10:44:03;;;;;;;0.67;0.63;;;12.00;99.90;;;;;;5050380;28;20228;-51
2022/11/06 10:46:36;;;;;;;1.50;1.40;;;11.80;99.90;;;;;;5051329;28;20254;-51
2022/11/06 10:49:06;;;;;;;2.40;2.30;;;11.80;99.90;;;;;;5048438;28;20202;-50
2022/11/06 10:51:57;;;;;;;2.27;2.17;;;11.70;99.90;;;;;;5050239;28;20208;-51
2022/11/06 10:54:41;;;;;;;3.80;3.50;;;11.60;99.90;;;;;;5041434;28;20674;-51
2022/11/06 10:57:21;;;;;;;5.17;4.73;;;11.60;99.90;;;;;;5043103;28;20204;-51
2022/11/06 10:59:50;;;;;;;5.40;5.00;;;11.50;99.90;;;;;;5045955;28;20431;-52
2022/11/06 11:02:24;;;;;;;4.63;4.23;;;11.50;99.90;;;;;;5045605;28;20237;-52
2022/11/06 11:04:51;;;;;;;5.33;4.93;;;11.40;99.90;;;;;;5039974;28;20209;-50
2022/11/06 11:07:18;;;;;;;4.83;4.43;;;11.20;99.90;;;;;;5028900;28;20221;-50
2022/11/06 11:09:48;;;;;;;6.07;5.57;;;11.20;99.90;;;;;;5028960;28;20221;-50
2022/11/06 11:12:23;;;;;;;4.20;3.80;;;11.20;99.90;;;;;;5037735;28;20686;-51
2022/11/06 11:15:12;;;;;;;5.20;4.90;;;11.20;99.90;;;;;;5038872;28;20200;-51
2022/11/06 11:17:40;;;;;;;4.60;4.20;;;11.30;99.90;;;;;;5049188;28;20204;-51
2022/11/06 11:20:31;;;;;;;5.23;4.83;;;11.50;99.90;;;;;;5050405;28;20262;-51
2022/11/06 11:23:14;;;;;;;4.30;4.00;;;11.40;99.90;;;;;;5050945;28;20232;-50
2022/11/06 11:25:44;;;;;;;4.67;4.37;;;11.30;99.90;;;;;;5034921;28;20202;-51
2022/11/06 11:28:22;;;;;;;5.57;5.13;;;11.40;99.90;;;;;;5041245;28;20251;-50
2022/11/06 11:30:54;;;;;;;5.50;5.10;;;11.20;99.90;;;;;;5045411;28;20210;-51
2022/11/06 11:33:24;;;;;;;6.30;5.73;;;11.00;99.90;;;;;;5048789;28;20268;-51
2022/11/06 11:35:51;;;;;;;6.53;5.10;;;11.00;99.90;;;;;;5045218;28;20205;-51
2022/11/06 11:38:20;;;;;;;5.27;4.80;;;10.90;99.90;;;;;;5054551;28;20618;-51
2022/11/06 11:40:50;;;;;;;6.00;5.50;;;11.00;99.90;;;;;;5054313;28;20567;-53
2022/11/06 11:43:26;;;;;;;6.07;4.63;;;11.00;99.90;;;;;;5052249;28;20313;-53
2022/11/06 11:46:04;;;;;;;6.27;4.73;;;11.10;99.90;;;;;;5047972;28;20245;-51
2022/11/06 11:48:43;;;;;;;4.90;4.60;;;11.20;99.90;;;;;;5034014;28;20717;-51
2022/11/06 11:51:29;;;;;;;4.97;4.67;;;11.20;99.90;;;;;;5034173;28;20594;-52
2022/11/06 11:54:01;;;;;;;4.80;4.50;;;11.00;99.90;;;;;;5044073;28;20258;-49
2022/11/06 11:56:30;;;;;;;5.33;4.93;;;10.90;99.90;;;;;;5041548;28;20208;-50
2022/11/06 11:59:00;;;;;;;6.17;4.83;;;10.90;99.90;;;;;;5045576;28;20206;-49
2022/11/06 12:01:38;;;;;;;4.70;4.30;;;10.90;99.90;;;;;;5046068;28;20279;-49
2022/11/06 12:04:19;;;;;;;5.33;4.93;;;11.00;99.90;;;;;;5053361;28;20290;-49
2022/11/06 12:06:51;;;;;;;4.80;4.40;;;10.90;99.90;;;;;;5053748;28;20276;-50
2022/11/06 12:09:19;;;;;;;5.50;5.00;;;10.90;99.90;;;;;;5052774;28;20684;-50
2022/11/06 12:11:48;;;;;;;5.97;5.57;;;11.00;99.90;;;;;;5043563;28;20291;-52
2022/11/06 12:14:26;;;;;;;5.33;4.93;;;10.90;99.90;;;;;;5052301;28;20221;-50
2022/11/06 12:16:56;;;;;;;5.53;5.07;;;10.90;99.90;;;;;;5051964;28;20537;-50
2022/11/06 12:19:28;;;;;;;4.87;4.47;;;10.90;99.90;;;;;;5051282;28;20202;-51
2022/11/06 12:22:00;;;;;;;7.57;6.83;;;10.90;99.90;;;;;;5051564;28;20196;-51
2022/11/06 12:24:33;;;;;;;7.17;4.80;;;10.90;99.90;;;;;;5048698;28;20247;-51
2022/11/06 12:27:06;;;;;;;4.93;4.53;;;10.90;99.90;;;;;;5046805;28;20677;-51
2022/11/06 12:29:36;;;;;;;4.87;4.47;;;11.00;99.90;;;;;;5048485;28;20544;-50
2022/11/06 12:32:09;;;;;;;5.93;5.43;;;11.00;99.90;;;;;;5052130;28;20207;-51
2022/11/06 12:34:43;;;;;;;5.60;5.10;;;11.00;99.90;;;;;;5051041;28;20220;-51
2022/11/06 12:37:20;;;;;;;5.73;5.33;;;10.80;99.90;;;;;;5051772;28;20670;-50
2022/11/06 12:39:54;;;;;;;5.30;4.80;;;10.60;99.90;;;;;;5049886;28;20219;-50
2022/11/06 12:42:27;;;;;;;6.10;5.50;;;10.60;99.90;;;;;;5050471;28;20223;-50
2022/11/06 12:44:54;;;;;;;6.37;5.10;;;10.50;99.90;;;;;;5052692;28;20209;-48
2022/11/06 12:47:33;;;;;;;5.10;4.63;;;10.50;99.90;;;;;;5052900;28;20223;-50
2022/11/06 12:50:31;;;;;;;5.47;5.07;;;10.70;99.90;;;;;;5050894;28;20746;-49
2022/11/06 12:53:16;;;;;;;5.50;5.00;;;10.60;99.90;;;;;;5041173;28;20239;-52
2022/11/06 12:55:50;;;;;;;5.47;4.97;;;10.50;99.90;;;;;;5045195;28;20295;-49
2022/11/06 12:58:43;;;;;;;5.60;5.17;;;10.50;99.90;;;;;;5043649;28;20200;-51
2022/11/06 13:01:19;;;;;;;6.03;5.47;;;10.50;99.90;;;;;;5043742;28;20565;-49
2022/11/06 13:04:05;;;;;;;9.17;7.23;;;10.40;99.90;;;;;;5041997;28;20623;-48
2022/11/06 13:06:57;;;;;;;5.57;5.07;;;10.50;99.90;;;;;;5032359;28;20201;-50
2022/11/06 13:09:30;;;;;;;5.17;4.77;;;10.50;99.90;;;;;;5032838;28;20205;-54
2022/11/06 13:12:06;;;;;;;4.67;4.27;;;10.60;99.90;;;;;;5039301;28;20345;-51
2022/11/06 13:14:42;;;;;;;6.47;5.80;;;10.60;99.90;;;;;;5048170;28;20226;-49
2022/11/06 13:17:15;;;;;;;6.10;5.60;;;10.60;99.90;;;;;;5052310;28;20667;-50
2022/11/06 13:19:49;;;;;;;5.10;4.70;;;10.50;99.90;;;;;;5051060;28;20605;-50
2022/11/06 13:22:30;;;;;;;5.17;4.80;;;10.60;99.90;;;;;;5043442;28;20719;-50